createdAt,value
2023-02-07T00:00:33.805Z,46.70
2023-02-07T00:03:04.657Z,45.80
2023-02-07T00:05:37.013Z,48.00
2023-02-07T00:08:08.706Z,46.70
2023-02-07T00:10:39.507Z,46.60
2023-02-07T00:13:10.205Z,43.40
2023-02-07T00:15:40.893Z,44.10
2023-02-07T00:18:11.580Z,42.40
2023-02-07T00:20:42.276Z,42.40
2023-02-07T00:23:13.002Z,44.20
2023-02-07T00:25:46.641Z,43.80
2023-02-07T00:28:17.484Z,45.30
2023-02-07T00:30:48.316Z,44.40
2023-02-07T00:33:19.040Z,41.70
2023-02-07T00:35:57.732Z,43.60
2023-02-07T00:38:28.668Z,43.00
2023-02-07T00:41:01.558Z,41.00
2023-02-07T00:43:33.154Z,44.60
2023-02-07T00:46:05.610Z,44.30
2023-02-07T00:48:36.667Z,42.00
2023-02-07T00:51:07.697Z,43.30
2023-02-07T00:53:39.565Z,40.80
2023-02-07T00:56:11.121Z,41.10
2023-02-07T00:58:41.826Z,43.50
2023-02-07T01:01:12.788Z,42.80
2023-02-07T01:03:43.720Z,42.70
2023-02-07T01:06:14.903Z,40.70
2023-02-07T01:08:45.900Z,39.70
2023-02-07T01:11:19.087Z,42.70
2023-02-07T01:13:49.853Z,39.20
2023-02-07T01:16:23.218Z,41.60
2023-02-07T01:18:54.577Z,40.40
2023-02-07T01:21:27.718Z,40.60
2023-02-07T01:23:58.439Z,40.00
2023-02-07T01:26:29.517Z,38.90
2023-02-07T01:29:00.324Z,39.40
2023-02-07T01:31:31.633Z,41.50
2023-02-07T01:34:05.351Z,39.70
2023-02-07T01:36:36.193Z,41.10
2023-02-07T01:39:07.034Z,40.70
2023-02-07T01:41:38.683Z,39.70
2023-02-07T01:44:40.851Z,43.00
2023-02-07T01:47:18.489Z,40.70
2023-02-07T01:49:50.152Z,38.10
2023-02-07T01:52:23.926Z,40.70
2023-02-07T01:55:00.493Z,36.80
2023-02-07T01:57:31.701Z,38.60
2023-02-07T02:00:03.412Z,37.10
2023-02-07T02:02:36.276Z,38.50
2023-02-07T02:05:08.998Z,36.60
2023-02-07T02:07:42.259Z,37.60
2023-02-07T02:10:19.585Z,38.70
2023-02-07T02:13:13.070Z,36.00
2023-02-07T02:15:54.020Z,34.40
2023-02-07T02:18:45.288Z,36.10
2023-02-07T02:22:00.595Z,33.20
2023-02-07T02:25:15.699Z,37.20
2023-02-07T02:28:09.276Z,32.80
2023-02-07T02:31:02.877Z,33.90
2023-02-07T02:33:45.294Z,33.90
2023-02-07T02:36:27.888Z,34.10
2023-02-07T02:39:07.594Z,34.90
2023-02-07T02:41:44.841Z,34.40
2023-02-07T02:44:23.006Z,34.60
2023-02-07T02:46:57.393Z,34.00
2023-02-07T02:49:30.723Z,34.50
2023-02-07T02:52:01.776Z,32.70
2023-02-07T02:54:35.356Z,33.60
2023-02-07T02:57:42.771Z,31.50
2023-02-07T03:00:47.282Z,33.90
2023-02-07T03:03:36.935Z,33.80
2023-02-07T03:06:21.176Z,31.20
2023-02-07T03:09:01.616Z,30.30
2023-02-07T03:11:37.426Z,31.40
2023-02-07T03:14:18.914Z,33.60
2023-02-07T03:16:59.043Z,30.50
2023-02-07T03:19:34.035Z,32.10
2023-02-07T03:22:10.865Z,33.90
2023-02-07T03:24:45.422Z,30.10
2023-02-07T03:27:20.073Z,29.70
2023-02-07T03:29:57.846Z,29.90
2023-02-07T03:32:31.843Z,30.90
2023-02-07T03:35:07.191Z,29.10
2023-02-07T03:37:41.736Z,28.20
2023-02-07T03:40:15.163Z,29.30
2023-02-07T03:42:52.166Z,26.90
2023-02-07T03:45:23.813Z,27.70
2023-02-07T03:47:54.508Z,26.20
2023-02-07T03:50:25.324Z,26.20
2023-02-07T03:52:56.060Z,26.60
2023-02-07T03:55:26.934Z,27.80
2023-02-07T03:57:57.755Z,27.70
2023-02-07T04:00:28.808Z,28.40
2023-02-07T04:02:59.493Z,27.00
2023-02-07T04:05:30.188Z,27.30
2023-02-07T04:08:00.938Z,26.20
2023-02-07T04:10:31.859Z,26.80
2023-02-07T04:13:02.563Z,25.80
2023-02-07T04:15:33.560Z,26.40
2023-02-07T04:18:04.364Z,26.30
2023-02-07T04:20:35.095Z,27.90
2023-02-07T04:23:05.750Z,25.70
2023-02-07T04:25:36.622Z,26.60
2023-02-07T04:28:07.788Z,28.00
2023-02-07T04:30:38.536Z,25.00
2023-02-07T04:33:09.197Z,26.10
2023-02-07T04:35:39.995Z,24.70
2023-02-07T04:38:11.068Z,26.10
2023-02-07T04:40:42.695Z,27.20
2023-02-07T04:43:13.400Z,24.30
2023-02-07T04:45:44.187Z,25.80
2023-02-07T04:48:15.213Z,25.50
2023-02-07T04:50:45.960Z,25.00
2023-02-07T04:53:17.169Z,24.60
2023-02-07T04:55:50.655Z,25.20
2023-02-07T04:58:22.694Z,24.30
2023-02-07T05:00:53.966Z,25.60
2023-02-07T05:03:24.780Z,23.50
2023-02-07T05:05:56.371Z,22.60
2023-02-07T05:08:27.284Z,24.20
2023-02-07T05:10:58.939Z,23.00
2023-02-07T05:13:29.935Z,21.70
2023-02-07T05:16:02.941Z,24.00
2023-02-07T05:18:34.102Z,21.90
2023-02-07T05:21:04.981Z,21.80
2023-02-07T05:23:35.699Z,22.50
2023-02-07T05:26:07.249Z,21.90
2023-02-07T05:28:37.997Z,23.50
2023-02-07T05:31:09.043Z,21.70
2023-02-07T05:33:40.132Z,21.80
2023-02-07T05:36:11.795Z,18.60
2023-02-07T05:38:42.518Z,19.20
2023-02-07T05:41:13.312Z,20.00
2023-02-07T05:43:44.101Z,18.50
2023-02-07T05:46:15.023Z,18.40
2023-02-07T05:48:48.554Z,19.30
2023-02-07T05:51:19.375Z,17.40
2023-02-07T05:53:50.125Z,17.80
2023-02-07T05:56:20.821Z,17.40
2023-02-07T05:58:51.639Z,17.70
2023-02-07T06:01:22.317Z,16.00
2023-02-07T06:03:53.186Z,17.00
2023-02-07T06:06:23.862Z,17.70
2023-02-07T06:08:54.575Z,22.60
2023-02-07T06:11:25.313Z,17.90
2023-02-07T06:13:56.161Z,16.10
2023-02-07T06:16:26.948Z,16.70
2023-02-07T06:18:57.682Z,15.80
2023-02-07T06:21:44.301Z,17.20
2023-02-07T06:24:16.927Z,14.90
2023-02-07T06:26:47.658Z,16.20
2023-02-07T06:29:18.591Z,15.60
2023-02-07T06:31:49.462Z,16.50
2023-02-07T06:34:20.243Z,15.70
2023-02-07T06:36:51.047Z,16.80
2023-02-07T06:39:21.864Z,16.20
2023-02-07T06:41:52.553Z,15.60
2023-02-07T06:44:23.300Z,16.80
2023-02-07T06:46:53.982Z,15.50
2023-02-07T06:49:24.731Z,16.40
2023-02-07T06:51:55.614Z,16.80
2023-02-07T06:54:26.457Z,16.60
2023-02-07T06:56:57.072Z,16.50
2023-02-07T06:59:27.911Z,15.90
2023-02-07T07:02:00.701Z,14.70
2023-02-07T07:04:32.085Z,13.70
2023-02-07T07:07:02.884Z,13.80
2023-02-07T07:09:33.703Z,14.00
2023-02-07T07:12:05.888Z,14.40
2023-02-07T07:14:36.914Z,17.10
2023-02-07T07:17:07.689Z,14.50
2023-02-07T07:19:38.420Z,15.10
2023-02-07T07:22:09.154Z,13.20
2023-02-07T07:24:44.925Z,14.60
2023-02-07T07:27:16.373Z,13.80
2023-02-07T07:29:49.466Z,15.50
2023-02-07T07:32:33.258Z,13.50
2023-02-07T07:35:05.125Z,13.70
2023-02-07T07:37:35.991Z,13.60
2023-02-07T07:40:08.775Z,13.90
2023-02-07T07:42:40.238Z,13.80
2023-02-07T07:45:17.976Z,13.50
2023-02-07T07:47:48.689Z,14.90
2023-02-07T07:50:19.990Z,13.50
2023-02-07T07:52:50.699Z,13.60
2023-02-07T07:55:21.401Z,13.30
2023-02-07T07:57:52.511Z,12.90
2023-02-07T08:00:23.588Z,13.50
2023-02-07T08:02:54.284Z,14.00
2023-02-07T08:05:25.071Z,15.30
2023-02-07T08:07:55.749Z,13.50
2023-02-07T08:10:26.496Z,14.90
2023-02-07T08:12:57.948Z,15.50
2023-02-07T08:15:28.884Z,13.00
2023-02-07T08:17:59.943Z,14.40
2023-02-07T08:20:30.648Z,15.20
2023-02-07T08:23:02.332Z,13.90
2023-02-07T08:25:33.073Z,14.50
2023-02-07T08:28:04.811Z,14.20
2023-02-07T08:30:35.997Z,12.80
2023-02-07T08:33:06.696Z,14.00
2023-02-07T08:35:38.058Z,14.50
2023-02-07T08:38:09.721Z,15.40
2023-02-07T08:40:41.125Z,14.60
2023-02-07T08:43:13.306Z,17.30
2023-02-07T08:45:48.154Z,15.10
2023-02-07T08:48:18.973Z,14.70
2023-02-07T08:50:49.825Z,14.60
2023-02-07T08:53:20.624Z,13.20
2023-02-07T08:55:52.062Z,13.40
2023-02-07T08:58:22.777Z,13.90
2023-02-07T09:00:53.468Z,12.10
2023-02-07T09:03:25.811Z,13.20
2023-02-07T09:06:00.998Z,13.40
2023-02-07T09:08:31.672Z,12.80
2023-02-07T09:11:02.489Z,12.10
2023-02-07T09:13:33.254Z,12.30
2023-02-07T09:16:04.092Z,12.70
2023-02-07T09:18:36.239Z,12.70
2023-02-07T09:21:09.597Z,12.60
2023-02-07T09:23:40.348Z,10.90
2023-02-07T09:26:16.690Z,12.40
2023-02-07T09:28:48.033Z,11.90
2023-02-07T09:31:21.127Z,11.50
2023-02-07T09:33:52.239Z,12.50
2023-02-07T09:36:26.860Z,12.10
2023-02-07T09:38:57.984Z,13.20
2023-02-07T09:41:40.225Z,13.20
2023-02-07T09:44:17.463Z,13.40
2023-02-07T09:46:58.908Z,13.00
2023-02-07T09:49:38.309Z,12.00
2023-02-07T09:52:15.569Z,13.30
2023-02-07T09:54:50.484Z,13.00
2023-02-07T09:57:26.626Z,12.80
2023-02-07T10:00:02.795Z,12.60
2023-02-07T10:02:39.730Z,11.90
2023-02-07T10:05:19.274Z,13.30
2023-02-07T10:07:50.787Z,13.10
2023-02-07T10:10:27.836Z,12.80
2023-02-07T10:13:18.326Z,12.90
2023-02-07T10:16:02.733Z,14.60
2023-02-07T10:18:49.509Z,11.80
2023-02-07T10:21:29.316Z,12.20
2023-02-07T10:24:21.824Z,11.60
2023-02-07T10:26:56.052Z,11.90
2023-02-07T10:29:43.938Z,12.90
2023-02-07T10:32:18.328Z,12.90
2023-02-07T10:34:52.404Z,12.40
2023-02-07T10:37:26.031Z,11.70
2023-02-07T10:40:04.690Z,12.00
2023-02-07T10:42:39.065Z,12.50
2023-02-07T10:45:14.202Z,11.50
2023-02-07T10:50:24.814Z,10.70
2023-02-07T10:53:00.832Z,12.90
2023-02-07T10:55:47.921Z,10.90
2023-02-07T10:58:24.227Z,10.90
2023-02-07T11:00:57.839Z,13.20
2023-02-07T11:03:29.118Z,13.10
2023-02-07T11:06:02.909Z,11.80
2023-02-07T11:08:35.360Z,12.10
2023-02-07T11:11:29.945Z,12.70
2023-02-07T11:14:06.700Z,11.90
2023-02-07T11:16:38.269Z,12.70
2023-02-07T11:19:09.726Z,11.30
2023-02-07T11:21:43.543Z,11.90
2023-02-07T11:24:19.147Z,11.40
2023-02-07T11:27:03.628Z,10.90
2023-02-07T11:29:41.143Z,10.80
2023-02-07T11:34:49.544Z,10.00
2023-02-07T11:37:29.983Z,10.40
2023-02-07T11:40:24.515Z,11.70
2023-02-07T11:43:02.498Z,11.10
2023-02-07T11:45:35.602Z,11.00
2023-02-07T11:48:07.547Z,12.00
2023-02-07T11:50:43.427Z,10.80
2023-02-07T11:53:24.738Z,11.40
2023-02-07T11:55:57.248Z,12.60
2023-02-07T11:58:34.810Z,10.70
2023-02-07T12:01:08.297Z,12.50
2023-02-07T12:03:48.902Z,11.50
2023-02-07T12:06:24.694Z,11.40
2023-02-07T12:08:56.689Z,12.50
2023-02-07T12:11:34.086Z,12.30
2023-02-07T12:14:11.125Z,14.10
2023-02-07T12:16:45.822Z,10.60
2023-02-07T12:19:23.130Z,11.30
2023-02-07T12:22:01.194Z,10.50
2023-02-07T12:24:36.317Z,11.80
2023-02-07T12:27:14.852Z,11.50
2023-02-07T12:29:57.980Z,11.30
2023-02-07T12:32:39.714Z,11.90
2023-02-07T12:35:21.159Z,12.50
2023-02-07T12:37:58.792Z,12.40
2023-02-07T12:40:35.136Z,11.70
2023-02-07T12:43:12.222Z,12.20
2023-02-07T12:45:55.643Z,11.80
2023-02-07T12:48:42.150Z,11.40
2023-02-07T12:51:25.098Z,11.00
2023-02-07T12:54:16.097Z,12.40
2023-02-07T12:56:54.143Z,11.00
2023-02-07T12:59:32.049Z,11.00
2023-02-07T13:02:15.995Z,11.60
2023-02-07T13:05:10.293Z,11.40
2023-02-07T13:07:57.533Z,10.70
2023-02-07T13:10:38.579Z,11.50
2023-02-07T13:13:18.938Z,11.40
2023-02-07T13:15:55.743Z,11.80
2023-02-07T13:18:33.765Z,11.90
2023-02-07T13:21:17.507Z,12.00
2023-02-07T13:23:50.182Z,9.50
2023-02-07T13:26:26.329Z,12.10
2023-02-07T13:28:59.381Z,11.60
2023-02-07T13:31:38.775Z,12.20
2023-02-07T13:34:16.933Z,11.40
2023-02-07T13:36:50.240Z,12.90
2023-02-07T13:39:42.895Z,13.60
2023-02-07T13:42:24.934Z,10.50
2023-02-07T13:45:03.668Z,12.30
2023-02-07T13:47:49.845Z,10.70
2023-02-07T13:50:40.419Z,13.20
2023-02-07T13:53:23.814Z,13.00
2023-02-07T13:55:54.877Z,11.90
2023-02-07T13:59:18.064Z,12.50
2023-02-07T14:01:54.728Z,12.90
2023-02-07T14:04:26.410Z,11.80
2023-02-07T14:07:11.829Z,12.10
2023-02-07T14:09:46.801Z,11.20
2023-02-07T14:12:23.790Z,12.50
2023-02-07T14:15:02.514Z,13.30
2023-02-07T14:18:02.042Z,13.30
2023-02-07T14:21:00.653Z,13.80
2023-02-07T14:23:59.182Z,12.70
2023-02-07T14:26:58.674Z,15.00
2023-02-07T14:30:03.349Z,13.70
2023-02-07T14:32:44.437Z,13.70
2023-02-07T14:35:48.131Z,14.00
2023-02-07T14:38:37.491Z,12.80
2023-02-07T14:41:12.706Z,12.90
2023-02-07T14:46:37.789Z,12.60
2023-02-07T14:49:20.981Z,13.50
2023-02-07T14:51:55.352Z,13.10
2023-02-07T14:54:30.740Z,12.90
2023-02-07T14:57:09.336Z,12.60
2023-02-07T14:59:44.926Z,12.30
2023-02-07T15:02:37.312Z,12.60
2023-02-07T15:05:23.667Z,12.80
2023-02-07T15:08:07.841Z,13.60
2023-02-07T15:10:43.066Z,14.60
2023-02-07T15:13:24.826Z,12.60
2023-02-07T15:15:58.639Z,13.00
2023-02-07T15:18:32.142Z,14.10
2023-02-07T15:21:04.005Z,13.90
2023-02-07T15:23:35.254Z,13.80
2023-02-07T15:26:09.355Z,12.90
2023-02-07T15:28:40.073Z,13.90
2023-02-07T15:31:15.895Z,12.50
2023-02-07T15:33:54.457Z,13.10
2023-02-07T15:36:35.852Z,13.10
2023-02-07T15:39:09.306Z,13.60
2023-02-07T15:41:40.429Z,14.30
2023-02-07T15:44:23.031Z,13.00
2023-02-07T15:46:56.412Z,14.20
2023-02-07T15:49:32.871Z,15.00
2023-02-07T15:52:14.551Z,12.90
2023-02-07T15:54:51.295Z,14.20
2023-02-07T15:57:28.587Z,13.60
2023-02-07T16:00:07.037Z,15.80
2023-02-07T16:02:57.273Z,14.10
2023-02-07T16:05:31.440Z,15.90
2023-02-07T16:08:28.327Z,15.00
2023-02-07T16:11:15.050Z,14.60
2023-02-07T16:13:51.121Z,14.60
2023-02-07T16:16:26.642Z,15.60
2023-02-07T16:19:08.499Z,15.40
2023-02-07T16:21:39.221Z,13.30
2023-02-07T16:24:18.174Z,16.00
2023-02-07T16:26:50.869Z,14.10
2023-02-07T16:29:24.098Z,14.60
2023-02-07T16:31:55.763Z,16.50
2023-02-07T16:34:26.840Z,16.90
2023-02-07T16:36:58.522Z,13.50
2023-02-07T16:39:29.228Z,15.00
2023-02-07T16:42:05.979Z,14.40
2023-02-07T16:44:39.160Z,15.20
2023-02-07T16:47:10.872Z,16.50
2023-02-07T16:49:43.585Z,16.60
2023-02-07T16:52:14.408Z,18.10
2023-02-07T16:54:48.060Z,16.80
2023-02-07T16:57:25.204Z,16.30
2023-02-07T16:59:56.112Z,15.90
2023-02-07T17:02:27.517Z,16.20
2023-02-07T17:04:58.217Z,16.60
2023-02-07T17:07:28.953Z,16.90
2023-02-07T17:09:59.791Z,16.30
2023-02-07T17:12:30.456Z,17.00
2023-02-07T17:15:01.834Z,15.70
2023-02-07T17:17:32.544Z,16.80
2023-02-07T17:20:03.290Z,16.50
2023-02-07T17:22:34.040Z,16.80
2023-02-07T17:25:04.723Z,15.90
2023-02-07T17:27:35.372Z,17.50
2023-02-07T17:30:13.939Z,18.20
2023-02-07T17:32:44.581Z,17.10
2023-02-07T17:35:16.093Z,15.60
2023-02-07T17:37:48.960Z,16.80
2023-02-07T17:40:28.321Z,16.10
2023-02-07T17:42:59.464Z,15.30
2023-02-07T17:45:31.656Z,17.10
2023-02-07T17:48:02.675Z,17.80
2023-02-07T17:50:35.460Z,17.20
2023-02-07T17:53:06.505Z,17.90
2023-02-07T17:55:38.123Z,17.60
2023-02-07T17:58:09.215Z,19.60
2023-02-07T18:00:41.627Z,18.90
2023-02-07T18:03:12.948Z,15.80
2023-02-07T18:05:43.601Z,17.10
2023-02-07T18:08:15.606Z,16.70
2023-02-07T18:10:46.386Z,18.50
2023-02-07T18:13:17.228Z,17.30
2023-02-07T18:15:47.968Z,16.00
2023-02-07T18:18:18.745Z,16.10
2023-02-07T18:20:49.438Z,15.90
2023-02-07T18:23:20.223Z,17.70
2023-02-07T18:25:52.193Z,16.80
2023-02-07T18:28:22.975Z,16.70
2023-02-07T18:30:53.966Z,17.50
2023-02-07T18:33:24.805Z,16.30
2023-02-07T18:35:59.888Z,15.90
2023-02-07T18:38:30.706Z,15.60
2023-02-07T18:41:01.441Z,16.40
2023-02-07T18:43:32.161Z,15.80
2023-02-07T18:46:07.291Z,15.40
2023-02-07T18:51:11.869Z,15.10
2023-02-07T18:53:44.148Z,15.50
2023-02-07T18:56:16.909Z,16.40
2023-02-07T18:58:49.240Z,16.30
2023-02-07T19:01:21.613Z,14.50
2023-02-07T19:03:54.535Z,16.90
2023-02-07T19:06:26.627Z,16.60
2023-02-07T19:08:57.667Z,17.80
2023-02-07T19:11:28.641Z,17.00
2023-02-07T19:13:59.394Z,16.00
2023-02-07T19:16:31.547Z,17.40
2023-02-07T19:19:03.616Z,15.60
2023-02-07T19:21:34.871Z,16.10
2023-02-07T19:24:08.429Z,15.50
2023-02-07T19:26:41.090Z,17.20
2023-02-07T19:29:15.634Z,18.00
2023-02-07T19:31:46.883Z,18.00
2023-02-07T19:34:18.019Z,17.20
2023-02-07T19:36:48.821Z,15.80
2023-02-07T19:39:19.593Z,14.90
2023-02-07T19:41:50.430Z,16.00
2023-02-07T19:44:21.167Z,16.00
2023-02-07T19:46:51.870Z,16.70
2023-02-07T19:49:22.626Z,15.80
2023-02-07T19:51:53.331Z,16.20
2023-02-07T19:54:24.036Z,17.80
2023-02-07T19:56:54.747Z,16.40
2023-02-07T19:59:25.488Z,16.40
2023-02-07T20:01:56.448Z,15.50
2023-02-07T20:04:27.205Z,15.80
2023-02-07T20:07:00.132Z,16.30
2023-02-07T20:09:31.770Z,17.70
2023-02-07T20:12:02.521Z,19.20
2023-02-07T20:14:33.290Z,17.90
2023-02-07T20:17:04.380Z,14.90
2023-02-07T20:19:35.358Z,15.20
2023-02-07T20:22:06.209Z,16.60
2023-02-07T20:24:37.029Z,15.80
2023-02-07T20:27:07.740Z,16.50
2023-02-07T20:29:38.437Z,16.60
2023-02-07T20:32:12.704Z,16.60
2023-02-07T20:34:43.428Z,14.10
2023-02-07T20:37:14.417Z,13.50
2023-02-07T20:39:45.181Z,15.90
2023-02-07T20:42:15.909Z,13.80
2023-02-07T20:44:46.787Z,14.50
2023-02-07T20:47:17.578Z,15.90
2023-02-07T20:49:48.310Z,14.80
2023-02-07T20:52:19.092Z,15.00
2023-02-07T20:54:49.892Z,16.20
2023-02-07T20:57:20.929Z,15.70
2023-02-07T20:59:51.718Z,15.40
2023-02-07T21:02:22.485Z,14.70
2023-02-07T21:04:53.258Z,15.40
2023-02-07T21:07:24.644Z,15.00
2023-02-07T21:09:55.754Z,15.10
2023-02-07T21:12:26.558Z,14.50
2023-02-07T21:14:57.563Z,13.70
2023-02-07T21:17:28.456Z,15.40
2023-02-07T21:19:59.171Z,14.80
2023-02-07T21:22:29.813Z,16.40
2023-02-07T21:25:00.582Z,15.60
2023-02-07T21:27:31.329Z,17.10
2023-02-07T21:30:02.005Z,14.90
2023-02-07T21:32:32.739Z,17.80
2023-02-07T21:35:03.454Z,17.20
2023-02-07T21:37:34.131Z,15.40
2023-02-07T21:40:05.083Z,17.80
2023-02-07T21:42:35.745Z,16.10
2023-02-07T21:45:07.092Z,17.10
2023-02-07T21:47:37.802Z,16.90
2023-02-07T21:50:09.306Z,16.60
2023-02-07T21:52:41.038Z,18.20
2023-02-07T21:55:12.460Z,16.90
2023-02-07T21:57:43.129Z,16.60
2023-02-07T22:00:18.019Z,15.50
2023-02-07T22:02:48.764Z,15.80
2023-02-07T22:05:20.008Z,16.90
2023-02-07T22:07:50.697Z,16.80
2023-02-07T22:10:21.494Z,14.90
2023-02-07T22:12:52.206Z,16.00
2023-02-07T22:15:22.888Z,16.00
2023-02-07T22:17:53.589Z,15.40
2023-02-07T22:20:24.418Z,15.60
2023-02-07T22:22:56.455Z,14.80
2023-02-07T22:25:27.189Z,15.60
2023-02-07T22:27:58.412Z,15.10
2023-02-07T22:30:31.297Z,14.90
2023-02-07T22:33:01.976Z,13.30
2023-02-07T22:35:35.577Z,13.50
2023-02-07T22:38:07.443Z,14.40
2023-02-07T22:40:40.171Z,14.10
2023-02-07T22:43:12.631Z,15.30
2023-02-07T22:45:46.737Z,14.00
2023-02-07T22:48:20.598Z,15.60
2023-02-07T22:50:51.568Z,14.50
2023-02-07T22:53:22.309Z,14.90
2023-02-07T22:55:53.224Z,15.10
2023-02-07T22:58:23.958Z,15.20
2023-02-07T23:00:56.190Z,15.50
2023-02-07T23:03:28.266Z,15.00
2023-02-07T23:05:59.077Z,14.90
2023-02-07T23:08:29.732Z,15.10
2023-02-07T23:11:00.921Z,15.80
2023-02-07T23:13:31.651Z,15.10
2023-02-07T23:16:02.597Z,14.40
2023-02-07T23:18:33.322Z,14.50
2023-02-07T23:21:08.495Z,15.40
2023-02-07T23:23:41.202Z,14.70
2023-02-07T23:26:14.207Z,15.30
2023-02-07T23:28:45.109Z,14.40
2023-02-07T23:31:17.637Z,15.80
2023-02-07T23:33:48.885Z,14.80
2023-02-07T23:36:20.170Z,13.30
2023-02-07T23:38:53.119Z,15.30
2023-02-07T23:41:24.046Z,16.40
2023-02-07T23:43:56.910Z,14.20
2023-02-07T23:46:27.832Z,14.60
2023-02-07T23:48:58.839Z,13.70
2023-02-07T23:51:30.178Z,14.80
2023-02-07T23:54:01.162Z,14.80
2023-02-07T23:56:31.854Z,16.10
2023-02-07T23:59:02.643Z,15.90
